地図

経路データ

SID SEASON NUMBER BASIN SUBBASIN NAME ISO_TIME NATURE LAT LON WMO_WIND WMO_PRES WMO_AGENCY TRACK_TYPE DIST2LAND LANDFALL IFLAG USA_AGENCY USA_ATCF_ID USA_LAT USA_LON USA_RECORD USA_STATUS USA_WIND USA_PRES USA_SSHS USA_R34_NE USA_R34_SE USA_R34_SW USA_R34_NW USA_R50_NE USA_R50_SE USA_R50_SW USA_R50_NW USA_R64_NE USA_R64_SE USA_R64_SW USA_R64_NW USA_POCI USA_ROCI USA_RMW USA_EYE TOKYO_LAT TOKYO_LON TOKYO_GRADE TOKYO_WIND TOKYO_PRES TOKYO_R50_DIR TOKYO_R50_LONG TOKYO_R50_SHORT TOKYO_R30_DIR TOKYO_R30_LONG TOKYO_R30_SHORT TOKYO_LAND CMA_LAT CMA_LON CMA_CAT CMA_WIND CMA_PRES HKO_LAT HKO_LON HKO_CAT HKO_WIND HKO_PRES NEWDELHI_LAT NEWDELHI_LON NEWDELHI_GRADE NEWDELHI_WIND NEWDELHI_PRES NEWDELHI_CI NEWDELHI_DP NEWDELHI_POCI REUNION_LAT REUNION_LON REUNION_TYPE REUNION_WIND REUNION_PRES REUNION_TNUM REUNION_CI REUNION_RMW REUNION_R34_NE REUNION_R34_SE REUNION_R34_SW REUNION_R34_NW REUNION_R50_NE REUNION_R50_SE REUNION_R50_SW REUNION_R50_NW REUNION_R64_NE REUNION_R64_SE REUNION_R64_SW REUNION_R64_NW BOM_LAT BOM_LON BOM_TYPE BOM_WIND BOM_PRES BOM_TNUM BOM_CI BOM_RMW BOM_R34_NE BOM_R34_SE BOM_R34_SW BOM_R34_NW BOM_R50_NE BOM_R50_SE BOM_R50_SW BOM_R50_NW BOM_R64_NE BOM_R64_SE BOM_R64_SW BOM_R64_NW BOM_ROCI BOM_POCI BOM_EYE BOM_POS_METHOD BOM_PRES_METHOD NADI_LAT NADI_LON NADI_CAT NADI_WIND NADI_PRES WELLINGTON_LAT WELLINGTON_LON WELLINGTON_WIND WELLINGTON_PRES DS824_LAT DS824_LON DS824_STAGE DS824_WIND DS824_PRES TD9636_LAT TD9636_LON TD9636_STAGE TD9636_WIND TD9636_PRES TD9635_LAT TD9635_LON TD9635_WIND TD9635_PRES TD9635_ROCI NEUMANN_LAT NEUMANN_LON NEUMANN_CLASS NEUMANN_WIND NEUMANN_PRES MLC_LAT MLC_LON MLC_CLASS MLC_WIND MLC_PRES USA_GUST BOM_GUST BOM_GUST_PER REUNION_GUST REUNION_GUST_PER USA_SEAHGT USA_SEARAD_NE USA_SEARAD_SE USA_SEARAD_SW USA_SEARAD_NW STORM_SPEED STORM_DIR
1938310N08091 1938 63 NI BB NOT_NAMED 1938-11-06 00:00:00 TS 8.10000 91.1000 main 532 532 _________O____ -1 8.10000 91.1000 TC 30 4 340
1938310N08091 1938 63 NI BB NOT_NAMED 1938-11-06 03:00:00 TS 8.26667 91.0400 main 553 553 _________PO___ -1 8.35000 91.0100 TC 30 8.10000 91.1000 1 4 337
1938310N08091 1938 63 NI BB NOT_NAMED 1938-11-06 06:00:00 TS 8.49814 90.9319 main 575 575 _________OP___ -1 8.60000 90.9000 TC 30 8.34535 90.9798 1 5 333
1938310N08091 1938 63 NI BB NOT_NAMED 1938-11-06 09:00:00 TS 8.73966 90.8004 main 597 597 _________PP___ -1 8.85000 90.7575 TC 30 8.59254 90.8576 1 5 331
1938310N08091 1938 63 NI BB NOT_NAMED 1938-11-06 12:00:00 TS 8.97173 90.6658 main 625 625 _________OP___ -1 9.10000 90.6000 TC 30 8.84346 90.7316 1 6 331
1938310N08091 1938 63 NI BB NOT_NAMED 1938-11-06 15:00:00 TS 9.22500 90.5250 main 657 657 _________PO___ -1 9.34999 90.4500 TC 30 9.10000 90.6000 1 6 331
1938310N08091 1938 63 NI BB NOT_NAMED 1938-11-06 18:00:00 TS 9.48108 90.3806 main 686 686 _________OP___ -1 9.60000 90.3000 TC 30 9.36217 90.4612 1 6 331
1938310N08091 1938 63 NI BB NOT_NAMED 1938-11-06 21:00:00 TS 9.73997 90.2362 main 717 717 _________PP___ -1 9.85748 90.1575 TC 30 9.62247 90.3150 1 6 330
1938310N08091 1938 63 NI BB NOT_NAMED 1938-11-07 00:00:00 TS 9.98577 90.0806 main 747 747 _________OP___ -1 10.1000 90.0000 TC 30 9.87153 90.1612 1 6 325
1938310N08091 1938 63 NI BB NOT_NAMED 1938-11-07 03:00:00 TS 10.2075 89.9000 main 778 778 _________PO___ -1 10.3150 89.8000 TC 31 10.1000 90.0000 1 6 319
1938310N08091 1938 63 NI BB NOT_NAMED 1938-11-07 06:00:00 TS 10.4003 89.7140 main 790 780 _________OP___ -1 10.5000 89.6000 TC 32 10.3006 89.8281 1 5 316
1938310N08091 1938 63 NI BB NOT_NAMED 1938-11-07 09:00:00 TS 10.5687 89.5462 main 787 779 _________PP___ -1 10.6575 89.4425 TC 33 10.4800 89.6499 1 5 315
1938310N08091 1938 63 NI BB NOT_NAMED 1938-11-07 12:00:00 TS 10.7222 89.3859 main 786 778 _________OP___ -1 10.8000 89.3000 TC 34 10.6444 89.4718 1 4 314
1938310N08091 1938 63 NI BB NOT_NAMED 1938-11-07 15:00:00 TS 10.8750 89.2250 main 785 785 _________PO___ -1 10.9500 89.1500 TC 41 10.8000 89.3000 2 4 314
1938310N08091 1938 63 NI BB NOT_NAMED 1938-11-07 18:00:00 TS 11.0286 89.0612 main 785 785 _________OP___ -1 11.1000 89.0000 TC 49 10.9572 89.1225 2 4 313
1938310N08091 1938 63 NI BB NOT_NAMED 1938-11-07 21:00:00 TS 11.1788 88.8950 main 785 785 _________PP___ -1 11.2500 88.8350 TC 56 11.1075 88.9550 2 4 315
1938310N08091 1938 63 NI BB NOT_NAMED 1938-11-08 00:00:00 TS 11.3270 88.7550 main 785 779 _________OP___ -1 11.4000 88.7000 TC 64 11.2541 88.8100 2 4 323
1938310N08091 1938 63 NI BB NOT_NAMED 1938-11-08 03:00:00 TS 11.4750 88.6637 main 779 779 _________PO___ -1 11.5500 88.6275 TC 64 11.4000 88.7000 4 3 335
1938310N08091 1938 63 NI BB NOT_NAMED 1938-11-08 06:00:00 TS 11.6209 88.6175 main 780 765 _________OP___ -1 11.7000 88.6000 TC 64 11.5418 88.6349 4 3 347
1938310N08091 1938 63 NI BB NOT_NAMED 1938-11-08 09:00:00 TS 11.7637 88.5987 main 765 759 _________PP___ -1 11.8425 88.5925 TC 64 11.6849 88.6049 4 3 0
1938310N08091 1938 63 NI BB NOT_NAMED 1938-11-08 12:00:00 TS 11.9178 88.5987 main 759 745 _________OP___ -1 12.0000 88.6000 TC 64 11.8356 88.5974 4 3 4
1938310N08091 1938 63 NI BB NOT_NAMED 1938-11-08 15:00:00 TS 12.0962 88.6000 main 745 732 _________PO___ -1 12.1925 88.6000 TC 59 12.0000 88.6000 4 4 357
1938310N08091 1938 63 NI BB NOT_NAMED 1938-11-08 18:00:00 TS 12.2969 88.5944 main 732 719 _________OP___ -1 12.4000 88.6000 TC 54 12.1937 88.5887 4 4 0
1938310N08091 1938 63 NI BB NOT_NAMED 1938-11-08 21:00:00 TS 12.5037 88.5925 main 719 707 _________PP___ -1 12.6075 88.6000 TC 49 12.4000 88.5850 4 4 0
1938310N08091 1938 63 NI BB NOT_NAMED 1938-11-09 00:00:00 TS 12.7031 88.5944 main 707 695 _________OP___ -1 12.8000 88.6000 TC 45 12.6062 88.5888 4 4 2
1938310N08091 1938 63 NI BB NOT_NAMED 1938-11-09 03:00:00 TS 12.8787 88.5963 main 695 690 _________PO___ -1 12.9575 88.5925 TC 45 12.8000 88.6000 3 3 0
1938310N08091 1938 63 NI BB NOT_NAMED 1938-11-09 06:00:00 TS 13.0302 88.6089 main 690 679 _________OP___ -1 13.1000 88.6000 TC 45 12.9603 88.6178 3 3 11
1938310N08091 1938 63 NI BB NOT_NAMED 1938-11-09 09:00:00 TS 13.1750 88.6462 main 679 664 _________PP___ -1 13.2425 88.6500 TC 45 13.1075 88.6425 3 3 16
1938310N08091 1938 63 NI BB NOT_NAMED 1938-11-09 12:00:00 TS 13.3255 88.6855 main 664 654 _________OP___ -1 13.4000 88.7000 TC 45 13.2509 88.6709 3 3 9
1938310N08091 1938 63 NI BB NOT_NAMED 1938-11-09 15:00:00 TS 13.5000 88.7000 main 654 644 _________PO___ -1 13.6000 88.7000 TC 45 13.4000 88.7000 3 3 4
1938310N08091 1938 63 NI BB NOT_NAMED 1938-11-09 18:00:00 TS 13.6717 88.7085 main 644 640 _________OP___ -1 13.8000 88.7000 TC 45 13.5434 88.7170 3 3 6
1938310N08091 1938 63 NI BB NOT_NAMED 1938-11-09 21:00:00 TS 13.8125 88.7388 main 640 621 _________PP___ -1 13.9275 88.7425 TC 45 13.6975 88.7352 3 3 12
1938310N08091 1938 63 NI BB NOT_NAMED 1938-11-10 00:00:00 TS 13.9889 88.7804 main 621 613 _________OP___ -1 14.1000 88.8000 TC 45 13.8778 88.7608 3 5 10
1938310N08091 1938 63 NI BB NOT_NAMED 1938-11-10 03:00:00 TS 14.2637 88.8213 main 610 589 _________PO___ -1 14.4275 88.8425 TC 45 14.1000 88.8000 3 6 9
1938310N08091 1938 63 NI BB NOT_NAMED 1938-11-10 06:00:00 TS 14.5910 88.8823 main 589 570 _________OP___ -1 14.8000 88.9000 TC 45 14.3819 88.8646 3 7 13
1938310N08091 1938 63 NI BB NOT_NAMED 1938-11-10 09:00:00 TS 14.9025 88.9712 main 570 553 _________PP___ -1 15.1000 89.0000 TC 45 14.7050 88.9424 3 7 15
1938310N08091 1938 63 NI BB NOT_NAMED 1938-11-10 12:00:00 TS 15.2253 89.0620 main 553 547 _________OP___ -1 15.4000 89.1000 TC 45 15.0507 89.0240 3 7 13
1938310N08091 1938 63 NI BB NOT_NAMED 1938-11-10 15:00:00 TS 15.5750 89.1288 main 547 534 _________PO___ -1 15.7500 89.1575 TC 45 15.4000 89.1000 3 7 8
1938310N08091 1938 63 NI BB NOT_NAMED 1938-11-10 18:00:00 TS 15.8820 89.1608 main 534 527 _________OP___ -1 16.1000 89.2000 TC 45 15.6640 89.1216 3 6 6
1938310N08091 1938 63 NI BB NOT_NAMED 1938-11-10 21:00:00 TS 16.1424 89.1810 main 527 490 _________PP___ -1 16.3475 89.2204 TC 45 15.9374 89.1417 3 6 7
1938310N08091 1938 63 NI BB NOT_NAMED 1938-11-11 00:00:00 TS 16.4835 89.2454 main 490 461 _________OP___ -1 16.7000 89.3000 TC 45 16.2670 89.1908 3 9 14
1938310N08091 1938 63 NI BB NOT_NAMED 1938-11-11 03:00:00 TS 17.0200 89.4062 main 461 421 _________PO___ -1 17.3400 89.5124 TC 45 16.7000 89.3000 3 13 18
1938310N08091 1938 63 NI BB NOT_NAMED 1938-11-11 06:00:00 TS 17.7003 89.6567 main 429 362 _________OP___ -1 18.1000 89.8000 TC 45 17.3006 89.5134 3 15 20
1938310N08091 1938 63 NI BB NOT_NAMED 1938-11-11 09:00:00 TS 18.4053 89.9444 main 362 291 _________PP___ -1 18.8075 90.1000 TC 45 18.0030 89.7887 3 15 21
1938310N08091 1938 63 NI BB NOT_NAMED 1938-11-11 12:00:00 TS 19.1269 90.2474 main 291 222 _________OP___ -1 19.5000 90.4000 TC 45 18.7538 90.0948 3 15 21
1938310N08091 1938 63 NI BB NOT_NAMED 1938-11-11 15:00:00 TS 19.8287 90.5289 main 222 162 _________PO___ -1 20.1574 90.6578 TC 41 19.5000 90.4000 3 14 20
1938310N08091 1938 63 NI BB NOT_NAMED 1938-11-11 18:00:00 TS 20.4571 90.7735 main 156 103 _________OP___ -1 20.8000 90.9000 TC 37 20.2000 90.6786 3 14 20
1938310N08091 1938 63 NI BB NOT_NAMED 1938-11-11 21:00:00 TS 21.0933 91.0181 main 103 68 _________PP___ -1 21.4476 91.1470 TC 33 20.8571 90.9322 3 13 20
1938310N08091 1938 63 NI BB NOT_NAMED 1938-11-12 00:00:00 TS 21.6905 91.2465 main 68 42 _________OP___ -1 22.1000 91.4000 TC 30 21.4858 91.1697 3 11 19
1938310N08091 1938 63 NI BB NOT_NAMED 1938-11-12 03:00:00 NR 22.1000 91.4000 main 42 __________O___ -1 TC 22.1000 91.4000 1 9 19

IBTrACS Databaseについて

本データベースは、米国NOAAが公開する1842年以降の世界の熱帯低気圧のベストトラックデータアーカイブInternational Best Track Archive for Climate Stewardship (IBTrACS)を、ウェブで閲覧しやすい形式に変換したものです。

最終更新日:2021-10-21